createdAt,value
2024-04-14T00:00:51.221Z,2.60
2024-04-14T00:01:51.067Z,2.80
2024-04-14T00:02:51.034Z,2.40
2024-04-14T00:03:51.088Z,2.30
2024-04-14T00:04:51.140Z,2.50
2024-04-14T00:05:51.018Z,2.30
2024-04-14T00:06:51.077Z,2.30
2024-04-14T00:07:50.979Z,2.20
2024-04-14T00:08:50.963Z,2.60
2024-04-14T00:09:51.077Z,2.30
2024-04-14T00:10:50.968Z,2.30
2024-04-14T00:11:50.922Z,2.20
2024-04-14T00:12:51.012Z,2.40
2024-04-14T00:13:50.884Z,3.10
2024-04-14T00:14:50.870Z,2.50
2024-04-14T00:15:50.908Z,2.50
2024-04-14T00:16:50.842Z,2.20
2024-04-14T00:17:50.921Z,2.40
2024-04-14T00:18:52.076Z,2.30
2024-04-14T00:19:50.859Z,2.30
2024-04-14T00:20:50.832Z,2.50
2024-04-14T00:21:50.838Z,2.30
2024-04-14T00:22:50.782Z,2.30
2024-04-14T00:23:50.773Z,2.30
2024-04-14T00:24:50.785Z,2.20
2024-04-14T00:25:50.746Z,2.10
2024-04-14T00:26:50.740Z,2.00
2024-04-14T00:27:50.736Z,2.20
2024-04-14T00:28:50.722Z,2.10
2024-04-14T00:29:50.726Z,2.30
2024-04-14T00:30:50.751Z,2.20
2024-04-14T00:31:50.657Z,2.20
2024-04-14T00:32:50.694Z,2.00
2024-04-14T00:33:50.659Z,2.10
2024-04-14T00:34:50.622Z,2.20
2024-04-14T00:35:50.596Z,2.10
2024-04-14T00:36:50.842Z,2.00
2024-04-14T00:37:50.571Z,2.30
2024-04-14T00:38:50.575Z,2.20
2024-04-14T00:39:50.637Z,1.80
2024-04-14T00:40:50.534Z,1.90
2024-04-14T00:41:50.516Z,2.30
2024-04-14T00:42:50.551Z,2.00
2024-04-14T00:43:50.533Z,2.10
2024-04-14T00:44:50.495Z,2.10
2024-04-14T00:45:50.475Z,2.00
2024-04-14T00:46:50.458Z,1.80
2024-04-14T00:47:50.563Z,2.00
2024-04-14T00:48:50.524Z,2.10
2024-04-14T00:49:50.423Z,1.90
2024-04-14T00:50:50.402Z,1.90
2024-04-14T00:51:50.431Z,2.10
2024-04-14T00:52:50.396Z,2.00
2024-04-14T00:53:50.372Z,1.90
2024-04-14T00:54:50.409Z,2.20
2024-04-14T00:55:50.345Z,2.00
2024-04-14T00:56:50.332Z,1.70
2024-04-14T00:57:50.374Z,1.60
2024-04-14T00:58:50.294Z,1.80
2024-04-14T00:59:50.287Z,1.70
2024-04-14T01:00:50.417Z,2.00
2024-04-14T01:01:50.269Z,1.70
2024-04-14T01:02:50.240Z,1.70
2024-04-14T01:03:50.454Z,1.90
2024-04-14T01:04:50.352Z,1.90
2024-04-14T01:05:50.229Z,1.70
2024-04-14T01:06:50.216Z,1.80
2024-04-14T01:07:50.162Z,1.80
2024-04-14T01:08:50.154Z,1.70
2024-04-14T01:09:50.173Z,1.80
2024-04-14T01:10:50.169Z,1.90
2024-04-14T01:11:50.145Z,1.90
2024-04-14T01:12:50.172Z,1.70
2024-04-14T01:13:50.100Z,2.10
2024-04-14T01:14:50.086Z,2.00
2024-04-14T01:15:50.143Z,2.00
2024-04-14T01:16:50.049Z,2.10
2024-04-14T01:17:50.154Z,1.90
2024-04-14T01:18:50.081Z,2.10
2024-04-14T01:19:50.018Z,2.00
2024-04-14T01:20:50.015Z,2.00
2024-04-14T01:21:49.992Z,2.00
2024-04-14T01:22:49.972Z,1.80
2024-04-14T01:23:49.956Z,2.30
2024-04-14T01:24:50.023Z,2.00
2024-04-14T01:25:49.972Z,1.90
2024-04-14T01:26:49.908Z,1.90
2024-04-14T01:27:49.909Z,2.00
2024-04-14T01:28:49.882Z,1.90
2024-04-14T01:29:49.921Z,2.00
2024-04-14T01:30:49.888Z,1.90
2024-04-14T01:31:49.879Z,2.00
2024-04-14T01:32:49.870Z,2.10
2024-04-14T01:33:49.895Z,2.10
2024-04-14T01:34:49.818Z,1.70
2024-04-14T01:35:49.795Z,2.20
2024-04-14T01:36:49.863Z,2.00
2024-04-14T01:37:49.788Z,2.20
2024-04-14T01:38:49.796Z,2.00
2024-04-14T01:39:49.770Z,2.10
2024-04-14T01:40:49.744Z,2.10
2024-04-14T01:41:49.721Z,2.10
2024-04-14T01:42:49.742Z,2.10
2024-04-14T01:43:49.715Z,2.00
2024-04-14T01:44:49.678Z,1.70
2024-04-14T01:45:49.726Z,2.10
2024-04-14T01:46:49.693Z,2.10
2024-04-14T01:47:49.688Z,2.10
2024-04-14T01:48:49.727Z,2.20
2024-04-14T01:49:49.632Z,1.90
2024-04-14T01:50:49.618Z,1.90
2024-04-14T01:51:49.610Z,2.00
2024-04-14T01:52:49.593Z,2.10
2024-04-14T01:53:49.577Z,2.00
2024-04-14T01:54:49.596Z,2.10
2024-04-14T01:55:49.553Z,2.20
2024-04-14T01:56:49.534Z,2.00
2024-04-14T01:57:49.562Z,2.10
2024-04-14T01:58:49.504Z,2.00
2024-04-14T01:59:49.500Z,1.90
2024-04-14T02:00:49.533Z,2.10
2024-04-14T02:01:49.471Z,2.00
2024-04-14T02:02:49.506Z,2.00
2024-04-14T02:03:49.594Z,2.00
2024-04-14T02:04:49.446Z,2.00
2024-04-14T02:05:49.406Z,2.20
2024-04-14T02:06:49.446Z,2.00
2024-04-14T02:07:49.386Z,1.80
2024-04-14T02:08:49.375Z,2.20
2024-04-14T02:09:49.377Z,1.90
2024-04-14T02:10:49.375Z,2.10
2024-04-14T02:11:49.342Z,2.00
2024-04-14T02:12:49.365Z,2.00
2024-04-14T02:13:49.326Z,2.10
2024-04-14T02:14:49.291Z,2.00
2024-04-14T02:15:49.364Z,2.20
2024-04-14T02:16:49.307Z,1.90
2024-04-14T02:17:49.388Z,2.10
2024-04-14T02:18:49.304Z,2.00
2024-04-14T02:19:49.209Z,2.00
2024-04-14T02:20:49.251Z,1.90
2024-04-14T02:21:49.225Z,1.90
2024-04-14T02:22:49.185Z,2.00
2024-04-14T02:23:49.171Z,1.90
2024-04-14T02:24:49.224Z,1.90
2024-04-14T02:25:49.162Z,2.00
2024-04-14T02:26:49.133Z,2.10
2024-04-14T02:27:49.168Z,2.10
2024-04-14T02:28:49.090Z,1.90
2024-04-14T02:29:49.093Z,1.90
2024-04-14T02:30:49.100Z,1.80
2024-04-14T02:31:49.096Z,1.80
2024-04-14T02:32:49.061Z,2.00
2024-04-14T02:33:49.049Z,2.00
2024-04-14T02:34:49.032Z,1.90
2024-04-14T02:35:48.996Z,2.10
2024-04-14T02:36:49.020Z,2.00
2024-04-14T02:37:48.992Z,2.00
2024-04-14T02:38:48.979Z,2.10
2024-04-14T02:39:49.047Z,2.00
2024-04-14T02:40:48.946Z,2.40
2024-04-14T02:41:48.915Z,1.90
2024-04-14T02:42:48.986Z,1.90
2024-04-14T02:43:48.925Z,2.00
2024-04-14T02:44:48.896Z,2.10
2024-04-14T02:45:48.992Z,2.20
2024-04-14T02:46:48.875Z,2.20
2024-04-14T02:47:48.978Z,1.80
2024-04-14T02:48:49.089Z,2.00
2024-04-14T02:49:48.852Z,2.00
2024-04-14T02:50:48.806Z,2.20
2024-04-14T02:51:48.844Z,2.20
2024-04-14T02:52:48.807Z,2.60
2024-04-14T02:53:48.791Z,2.00
2024-04-14T02:54:48.921Z,2.00
2024-04-14T02:55:48.744Z,1.90
2024-04-14T02:56:48.751Z,2.00
2024-04-14T02:57:48.744Z,2.40
2024-04-14T02:58:48.727Z,2.30
2024-04-14T02:59:48.701Z,2.10
2024-04-14T03:00:48.763Z,2.20
2024-04-14T03:01:48.737Z,2.50
2024-04-14T03:02:48.708Z,2.10
2024-04-14T03:03:48.711Z,2.00
2024-04-14T03:04:48.714Z,2.20
2024-04-14T03:05:48.600Z,2.20
2024-04-14T03:06:48.655Z,2.20
2024-04-14T03:07:48.627Z,2.40
2024-04-14T03:08:48.580Z,2.20
2024-04-14T03:09:48.626Z,2.20
2024-04-14T03:10:48.661Z,2.20
2024-04-14T03:11:48.562Z,2.00
2024-04-14T03:12:48.553Z,2.20
2024-04-14T03:13:48.505Z,2.30
2024-04-14T03:14:48.513Z,2.10
2024-04-14T03:15:48.535Z,2.20
2024-04-14T03:16:48.558Z,2.20
2024-04-14T03:17:48.487Z,2.30
2024-04-14T03:18:48.493Z,2.10
2024-04-14T03:19:48.428Z,2.10
2024-04-14T03:20:48.435Z,2.30
2024-04-14T03:21:48.451Z,2.50
2024-04-14T03:22:48.414Z,2.10
2024-04-14T03:23:48.369Z,2.30
2024-04-14T03:24:48.396Z,2.30
2024-04-14T03:25:48.375Z,2.80
2024-04-14T03:26:48.362Z,2.30
2024-04-14T03:27:48.374Z,2.40
2024-04-14T03:28:48.338Z,2.20
2024-04-14T03:29:48.309Z,2.20
2024-04-14T03:30:48.395Z,2.40
2024-04-14T03:31:48.319Z,2.50
2024-04-14T03:32:48.318Z,2.30
2024-04-14T03:33:48.308Z,2.40
2024-04-14T03:34:48.266Z,2.40
2024-04-14T03:35:48.255Z,2.10
2024-04-14T03:36:48.274Z,2.50
2024-04-14T03:37:48.192Z,2.10
2024-04-14T03:38:48.187Z,2.60
2024-04-14T03:39:48.220Z,2.20
2024-04-14T03:40:48.183Z,2.40
2024-04-14T03:41:48.133Z,2.30
2024-04-14T03:42:48.226Z,2.60
2024-04-14T03:43:48.127Z,2.60
2024-04-14T03:44:48.151Z,2.20
2024-04-14T03:45:48.142Z,2.20
2024-04-14T03:46:48.097Z,2.40
2024-04-14T03:47:48.119Z,2.40
2024-04-14T03:48:48.187Z,2.40
2024-04-14T03:49:48.049Z,2.30
2024-04-14T03:50:48.027Z,2.30
2024-04-14T03:51:48.069Z,2.30
2024-04-14T03:52:48.021Z,2.40
2024-04-14T03:53:48.004Z,2.40
2024-04-14T03:54:47.996Z,2.50
2024-04-14T03:55:47.968Z,2.40
2024-04-14T03:56:47.956Z,1.90
2024-04-14T03:57:47.973Z,2.40
2024-04-14T03:58:47.991Z,2.40
2024-04-14T03:59:47.925Z,2.40
2024-04-14T04:00:47.984Z,2.70
2024-04-14T04:01:47.950Z,2.50
2024-04-14T04:02:47.946Z,2.40
2024-04-14T04:03:47.995Z,2.40
2024-04-14T04:04:47.984Z,2.40
2024-04-14T04:05:47.811Z,2.60
2024-04-14T04:06:47.843Z,2.60
2024-04-14T04:07:47.796Z,2.30
2024-04-14T04:08:47.809Z,2.30
2024-04-14T04:09:47.835Z,3.00
2024-04-14T04:10:47.777Z,2.60
2024-04-14T04:11:47.763Z,2.80
2024-04-14T04:12:47.776Z,2.40
2024-04-14T04:13:47.776Z,2.50
2024-04-14T04:14:47.714Z,2.70
2024-04-14T04:15:47.736Z,2.70
2024-04-14T04:16:47.732Z,2.70
2024-04-14T04:17:47.717Z,2.80
2024-04-14T04:18:47.721Z,2.60
2024-04-14T04:19:47.677Z,2.50
2024-04-14T04:20:47.648Z,2.50
2024-04-14T04:21:47.687Z,2.30
2024-04-14T04:22:47.613Z,2.40
2024-04-14T04:23:47.603Z,2.40
2024-04-14T04:24:47.624Z,2.40
2024-04-14T04:25:47.576Z,2.20
2024-04-14T04:26:47.574Z,2.50
2024-04-14T04:27:47.591Z,2.60
2024-04-14T04:28:47.555Z,2.70
2024-04-14T04:29:47.525Z,2.50
2024-04-14T04:30:47.582Z,2.40
2024-04-14T04:31:47.589Z,2.50
2024-04-14T04:32:47.523Z,2.40
2024-04-14T04:33:47.531Z,2.30
2024-04-14T04:34:47.474Z,2.50
2024-04-14T04:35:47.465Z,2.30
2024-04-14T04:36:47.479Z,2.30
2024-04-14T04:37:47.414Z,2.50
2024-04-14T04:38:47.410Z,2.40
2024-04-14T04:39:47.399Z,2.20
2024-04-14T04:40:47.396Z,2.60
2024-04-14T04:41:47.362Z,2.40
2024-04-14T04:42:47.391Z,2.20
2024-04-14T04:43:47.338Z,2.00
2024-04-14T04:44:47.340Z,2.40
2024-04-14T04:45:47.338Z,2.00
2024-04-14T04:46:47.295Z,2.00
2024-04-14T04:47:47.339Z,2.10
2024-04-14T04:48:47.535Z,2.10
2024-04-14T04:49:47.261Z,2.10
2024-04-14T04:50:47.304Z,2.10
2024-04-14T04:51:47.239Z,2.10
2024-04-14T04:52:47.236Z,2.00
2024-04-14T04:53:47.204Z,2.20
2024-04-14T04:54:47.257Z,2.30
2024-04-14T04:55:47.197Z,2.30
2024-04-14T04:56:47.181Z,2.00
2024-04-14T04:57:47.191Z,2.00
2024-04-14T04:58:47.209Z,2.20
2024-04-14T04:59:47.136Z,2.10
2024-04-14T05:00:47.168Z,1.80
2024-04-14T05:01:47.146Z,1.90
2024-04-14T05:02:47.104Z,1.90
2024-04-14T05:03:47.185Z,2.10
2024-04-14T05:04:47.060Z,2.30
2024-04-14T05:05:47.050Z,2.10
2024-04-14T05:06:47.056Z,2.30
2024-04-14T05:07:47.032Z,2.40
2024-04-14T05:08:47.021Z,2.60
2024-04-14T05:09:47.055Z,2.50
2024-04-14T05:10:47.037Z,2.60
2024-04-14T05:11:46.998Z,2.60
2024-04-14T05:12:47.089Z,2.60
2024-04-14T05:13:46.939Z,2.30
2024-04-14T05:14:46.952Z,2.30
2024-04-14T05:15:46.939Z,2.40
2024-04-14T05:16:46.910Z,2.20
2024-04-14T05:17:47.004Z,2.10
2024-04-14T05:18:47.145Z,2.60
2024-04-14T05:19:50.050Z,2.50
2024-04-14T05:20:46.847Z,2.40
2024-04-14T05:21:46.942Z,2.30
2024-04-14T05:22:46.839Z,2.70
2024-04-14T05:23:46.789Z,2.40
2024-04-14T05:24:46.834Z,2.20
2024-04-14T05:25:46.783Z,2.20
2024-04-14T05:26:46.785Z,2.40
2024-04-14T05:27:46.785Z,2.50
2024-04-14T05:28:46.742Z,2.20
2024-04-14T05:29:46.751Z,2.40
2024-04-14T05:30:46.772Z,2.20
2024-04-14T05:31:46.729Z,2.20
2024-04-14T05:32:46.711Z,2.20
2024-04-14T05:33:46.721Z,2.30
2024-04-14T05:34:46.680Z,2.50
2024-04-14T05:35:46.664Z,2.60
2024-04-14T05:36:46.777Z,2.30
2024-04-14T05:37:46.629Z,2.40
2024-04-14T05:38:46.630Z,2.30
2024-04-14T05:39:46.639Z,2.30
2024-04-14T05:40:46.618Z,2.70
2024-04-14T05:41:46.579Z,2.60
2024-04-14T05:42:46.602Z,2.40
2024-04-14T05:43:46.551Z,2.70
2024-04-14T05:44:46.549Z,2.30
2024-04-14T05:45:46.638Z,2.20
2024-04-14T05:46:46.513Z,2.40
2024-04-14T05:47:46.529Z,2.40
2024-04-14T05:48:46.532Z,2.30
2024-04-14T05:49:46.543Z,2.10
2024-04-14T05:50:46.444Z,2.20
2024-04-14T05:51:46.474Z,2.40
2024-04-14T05:52:46.418Z,2.20
2024-04-14T05:53:46.410Z,2.30
2024-04-14T05:54:46.442Z,2.40
2024-04-14T05:55:47.625Z,2.40
2024-04-14T05:56:46.384Z,2.20
2024-04-14T05:57:46.394Z,2.20
2024-04-14T05:58:46.356Z,2.50
2024-04-14T05:59:46.350Z,2.20
2024-04-14T06:00:46.402Z,2.00
2024-04-14T06:01:46.389Z,2.30
2024-04-14T06:02:46.357Z,2.10
2024-04-14T06:03:46.329Z,2.30
2024-04-14T06:04:46.328Z,2.40
2024-04-14T06:05:46.261Z,2.10
2024-04-14T06:06:46.282Z,2.40
2024-04-14T06:07:46.219Z,2.10
2024-04-14T06:08:46.278Z,2.20
2024-04-14T06:09:46.236Z,2.40
2024-04-14T06:10:46.203Z,2.30
2024-04-14T06:11:46.193Z,2.50
2024-04-14T06:12:46.233Z,2.30
2024-04-14T06:13:46.154Z,2.20
2024-04-14T06:14:46.136Z,2.70
2024-04-14T06:15:49.373Z,2.20
2024-04-14T06:16:46.217Z,2.40
2024-04-14T06:17:46.144Z,2.50
2024-04-14T06:18:46.093Z,2.40
2024-04-14T06:19:46.072Z,2.80
2024-04-14T06:20:46.050Z,2.30
2024-04-14T06:21:46.069Z,2.30
2024-04-14T06:22:46.045Z,2.90
2024-04-14T06:23:46.045Z,2.60
2024-04-14T06:24:46.035Z,2.40
2024-04-14T06:25:45.999Z,2.20
2024-04-14T06:26:45.985Z,2.40
2024-04-14T06:27:46.125Z,2.40
2024-04-14T06:28:45.953Z,2.40
2024-04-14T06:29:46.003Z,2.20
2024-04-14T06:30:45.977Z,2.30
2024-04-14T06:31:45.934Z,2.20
2024-04-14T06:32:46.004Z,2.50
2024-04-14T06:33:45.949Z,2.40
2024-04-14T06:34:45.881Z,2.50
2024-04-14T06:35:45.876Z,2.60
2024-04-14T06:36:45.871Z,2.50
2024-04-14T06:37:45.840Z,2.30
2024-04-14T06:38:45.832Z,2.40
2024-04-14T06:39:45.837Z,2.20
2024-04-14T06:40:45.811Z,2.30
2024-04-14T06:41:45.782Z,2.20
2024-04-14T06:42:45.810Z,2.30
2024-04-14T06:43:45.769Z,2.20
2024-04-14T06:44:45.757Z,2.30
2024-04-14T06:45:45.826Z,2.40
2024-04-14T06:46:45.761Z,2.10
2024-04-14T06:47:45.758Z,2.20
2024-04-14T06:48:45.773Z,2.10
2024-04-14T06:49:45.710Z,2.60
2024-04-14T06:50:45.662Z,2.30
2024-04-14T06:51:45.767Z,2.40
2024-04-14T06:52:45.640Z,2.20
2024-04-14T06:53:45.636Z,2.70
2024-04-14T06:54:45.723Z,2.70
2024-04-14T06:55:45.627Z,2.20
2024-04-14T06:56:45.581Z,2.70
2024-04-14T06:57:45.599Z,2.60
2024-04-14T06:58:45.582Z,2.10
2024-04-14T06:59:45.556Z,2.10
2024-04-14T07:00:45.621Z,2.40
2024-04-14T07:01:45.643Z,2.70
2024-04-14T07:02:45.577Z,2.60
2024-04-14T07:03:45.551Z,2.20
2024-04-14T07:04:45.653Z,2.60
2024-04-14T07:05:45.499Z,2.40
2024-04-14T07:06:45.470Z,2.70
2024-04-14T07:07:45.450Z,2.20
2024-04-14T07:08:45.455Z,2.20
2024-04-14T07:09:45.450Z,2.40
2024-04-14T07:10:45.447Z,2.60
2024-04-14T07:11:45.487Z,2.70
2024-04-14T07:12:45.399Z,2.40
2024-04-14T07:13:45.408Z,3.40
2024-04-14T07:14:46.110Z,3.00
2024-04-14T07:15:45.422Z,3.10
2024-04-14T07:16:45.319Z,3.30
2024-04-14T07:17:45.401Z,3.40
2024-04-14T07:18:45.377Z,3.20
2024-04-14T07:19:45.301Z,3.60
2024-04-14T07:20:45.282Z,3.30
2024-04-14T07:21:45.297Z,3.20
2024-04-14T07:22:45.319Z,3.20
2024-04-14T07:23:49.227Z,3.20
2024-04-14T07:24:45.257Z,3.20
2024-04-14T07:25:45.206Z,3.20
2024-04-14T07:26:45.225Z,2.90
2024-04-14T07:27:45.263Z,3.60
2024-04-14T07:28:45.175Z,3.60
2024-04-14T07:29:45.188Z,3.60
2024-04-14T07:30:46.260Z,3.40
2024-04-14T07:31:45.157Z,3.50
2024-04-14T07:32:45.303Z,3.80
2024-04-14T07:33:45.172Z,3.70
2024-04-14T07:34:45.097Z,3.70
2024-04-14T07:35:45.090Z,3.70
2024-04-14T07:36:45.104Z,3.60
2024-04-14T07:37:45.222Z,3.80
2024-04-14T07:38:45.043Z,3.70
2024-04-14T07:39:45.114Z,4.10
2024-04-14T07:40:45.060Z,3.30
2024-04-14T07:41:45.014Z,3.90
2024-04-14T07:42:45.055Z,4.00
2024-04-14T07:43:44.983Z,3.80
2024-04-14T07:44:44.988Z,3.50
2024-04-14T07:45:44.970Z,3.60
2024-04-14T07:46:45.927Z,3.90
2024-04-14T07:47:45.267Z,3.60
2024-04-14T07:48:45.752Z,4.10
2024-04-14T07:49:44.913Z,3.50
2024-04-14T07:50:44.988Z,3.80
2024-04-14T07:51:44.907Z,3.60
2024-04-14T07:52:45.136Z,3.70
2024-04-14T07:53:45.595Z,3.40
2024-04-14T07:54:44.933Z,3.80
2024-04-14T07:55:44.847Z,3.40
2024-04-14T07:56:44.808Z,3.40
2024-04-14T07:57:44.867Z,3.60
2024-04-14T07:58:44.799Z,3.50
2024-04-14T07:59:46.460Z,3.40
2024-04-14T08:00:44.792Z,3.30
2024-04-14T08:01:44.767Z,3.20
2024-04-14T08:02:44.780Z,3.40
2024-04-14T08:03:51.025Z,3.60
2024-04-14T08:04:45.821Z,3.50
2024-04-14T08:05:44.758Z,3.60
2024-04-14T08:06:44.694Z,3.30
2024-04-14T08:07:44.671Z,3.30
2024-04-14T08:08:44.722Z,3.60
2024-04-14T08:09:44.783Z,3.40
2024-04-14T08:10:44.709Z,3.20
2024-04-14T08:11:44.613Z,3.30
2024-04-14T08:12:44.666Z,3.20
2024-04-14T08:13:44.617Z,3.50
2024-04-14T08:14:44.583Z,3.30
2024-04-14T08:15:44.587Z,3.40
2024-04-14T08:16:44.977Z,3.80
2024-04-14T08:17:44.607Z,3.40
2024-04-14T08:18:44.545Z,3.60
2024-04-14T08:19:44.505Z,3.60
2024-04-14T08:20:44.493Z,3.30
2024-04-14T08:21:44.502Z,3.00
2024-04-14T08:22:44.485Z,3.40
2024-04-14T08:23:44.453Z,3.40
2024-04-14T08:24:44.578Z,3.50
2024-04-14T08:25:44.427Z,3.40
2024-04-14T08:26:44.449Z,3.10
2024-04-14T08:27:44.448Z,3.40
2024-04-14T08:28:44.390Z,3.30
2024-04-14T08:29:44.374Z,3.20
2024-04-14T08:30:44.422Z,3.50
2024-04-14T08:31:44.379Z,3.50
2024-04-14T08:32:44.353Z,3.10
2024-04-14T08:33:44.807Z,3.60
2024-04-14T08:34:44.359Z,3.40
2024-04-14T08:35:44.297Z,3.20
2024-04-14T08:36:44.384Z,2.90
2024-04-14T08:37:44.291Z,3.30
2024-04-14T08:38:44.248Z,3.10
2024-04-14T08:39:44.288Z,3.00
2024-04-14T08:40:44.238Z,3.20
2024-04-14T08:41:44.266Z,3.20
2024-04-14T08:42:44.224Z,2.90
2024-04-14T08:43:44.202Z,2.80
2024-04-14T08:44:44.185Z,3.20
2024-04-14T08:45:44.218Z,2.80
2024-04-14T08:46:44.228Z,2.80
2024-04-14T08:47:44.163Z,2.70
2024-04-14T08:48:44.143Z,2.70
2024-04-14T08:49:44.154Z,2.80
2024-04-14T08:50:44.124Z,2.90
2024-04-14T08:51:44.143Z,2.70
2024-04-14T08:52:44.072Z,2.50
2024-04-14T08:53:44.097Z,2.60
2024-04-14T08:54:44.192Z,2.80
2024-04-14T08:55:44.050Z,2.40
2024-04-14T08:56:44.025Z,2.40
2024-04-14T08:57:44.031Z,2.10
2024-04-14T08:58:44.009Z,2.00
2024-04-14T08:59:44.009Z,2.20
2024-04-14T09:00:44.021Z,2.30
2024-04-14T09:01:44.021Z,2.50
2024-04-14T09:02:43.990Z,2.00
2024-04-14T09:03:44.035Z,2.60
2024-04-14T09:04:44.062Z,2.30
2024-04-14T09:05:43.915Z,2.50
2024-04-14T09:06:43.980Z,2.70
2024-04-14T09:07:43.883Z,2.50
2024-04-14T09:08:43.985Z,2.40
2024-04-14T09:09:43.930Z,2.20
2024-04-14T09:10:43.926Z,2.30
2024-04-14T09:11:43.841Z,2.30
2024-04-14T09:12:43.894Z,2.20
2024-04-14T09:13:43.879Z,2.50
2024-04-14T09:14:43.775Z,2.30
2024-04-14T09:15:43.902Z,2.20
2024-04-14T09:16:43.847Z,2.00
2024-04-14T09:17:43.786Z,2.10
2024-04-14T09:18:43.813Z,2.10
2024-04-14T09:19:43.808Z,2.10
2024-04-14T09:20:43.710Z,2.10
2024-04-14T09:21:43.746Z,1.70
2024-04-14T09:22:43.756Z,1.90
2024-04-14T09:23:43.691Z,1.60
2024-04-14T09:24:43.707Z,1.60
2024-04-14T09:25:43.661Z,2.00
2024-04-14T09:26:43.662Z,1.60
2024-04-14T09:27:43.749Z,1.90
2024-04-14T09:28:43.619Z,2.00
2024-04-14T09:29:43.661Z,1.70
2024-04-14T09:30:43.632Z,2.10
2024-04-14T09:31:43.596Z,2.20
2024-04-14T09:32:43.656Z,2.20
2024-04-14T09:33:43.665Z,2.10
2024-04-14T09:34:43.515Z,2.20
2024-04-14T09:35:43.659Z,2.00
2024-04-14T09:36:43.560Z,1.80
2024-04-14T09:37:43.517Z,1.90
2024-04-14T09:38:43.479Z,1.70
2024-04-14T09:39:43.499Z,1.80
2024-04-14T09:40:43.466Z,1.90
2024-04-14T09:41:43.483Z,1.60
2024-04-14T09:42:43.447Z,1.70
2024-04-14T09:43:43.428Z,1.80
2024-04-14T09:44:43.414Z,2.00
2024-04-14T09:45:43.451Z,2.10
2024-04-14T09:46:43.383Z,1.60
2024-04-14T09:47:43.476Z,1.80
2024-04-14T09:48:43.491Z,1.60
2024-04-14T09:49:43.391Z,1.60
2024-04-14T09:50:43.403Z,1.90
2024-04-14T09:51:43.388Z,1.80
2024-04-14T09:52:43.305Z,1.70
2024-04-14T09:53:43.284Z,1.80
2024-04-14T09:54:43.318Z,1.80
2024-04-14T09:55:43.255Z,2.10
2024-04-14T09:56:43.231Z,1.90
2024-04-14T09:57:43.375Z,1.80
2024-04-14T09:58:43.351Z,1.80
2024-04-14T09:59:43.240Z,1.90
2024-04-14T10:00:43.611Z,2.00
2024-04-14T10:01:43.239Z,1.90
2024-04-14T10:02:43.258Z,2.10
2024-04-14T10:03:43.264Z,2.00
2024-04-14T10:04:43.185Z,2.00
2024-04-14T10:05:43.154Z,1.90
2024-04-14T10:06:43.163Z,2.00
2024-04-14T10:07:43.149Z,1.70
2024-04-14T10:08:43.137Z,2.00
2024-04-14T10:09:43.107Z,1.70
2024-04-14T10:10:43.118Z,1.90
2024-04-14T10:11:43.092Z,2.20
2024-04-14T10:12:43.164Z,2.00
2024-04-14T10:13:43.088Z,1.80
2024-04-14T10:14:43.018Z,1.70
2024-04-14T10:15:43.074Z,1.70
2024-04-14T10:16:43.021Z,2.00
2024-04-14T10:17:43.032Z,1.90
2024-04-14T10:18:42.985Z,2.00
2024-04-14T10:19:42.938Z,2.20
2024-04-14T10:20:45.245Z,2.00
2024-04-14T10:21:42.978Z,2.00
2024-04-14T10:22:42.955Z,1.80
2024-04-14T10:23:44.020Z,2.10
2024-04-14T10:24:42.906Z,2.00
2024-04-14T10:25:42.851Z,1.70
2024-04-14T10:26:45.013Z,1.70
2024-04-14T10:27:42.865Z,1.70
2024-04-14T10:28:42.834Z,1.60
2024-04-14T10:29:42.815Z,1.70
2024-04-14T10:30:42.830Z,1.70
2024-04-14T10:31:42.788Z,1.60
2024-04-14T10:32:46.003Z,1.80
2024-04-14T10:33:42.849Z,1.50
2024-04-14T10:34:42.852Z,1.50
2024-04-14T10:35:42.756Z,1.70
2024-04-14T10:36:42.782Z,1.50
2024-04-14T10:37:42.715Z,1.10
2024-04-14T10:38:44.157Z,1.70
2024-04-14T10:39:42.688Z,1.60
2024-04-14T10:40:42.677Z,1.60
2024-04-14T10:41:42.699Z,1.40
2024-04-14T10:42:42.667Z,1.50
2024-04-14T10:43:42.624Z,1.50
2024-04-14T10:44:44.787Z,1.80
2024-04-14T10:45:42.643Z,1.60
2024-04-14T10:46:42.670Z,1.30
2024-04-14T10:47:42.674Z,1.60
2024-04-14T10:48:42.627Z,1.30
2024-04-14T10:49:42.555Z,1.40
2024-04-14T10:50:44.805Z,1.60
2024-04-14T10:51:42.742Z,1.30
2024-04-14T10:52:42.521Z,1.40
2024-04-14T10:53:42.498Z,1.30
2024-04-14T10:54:42.542Z,1.70
2024-04-14T10:55:43.564Z,1.40
2024-04-14T10:56:45.095Z,1.60
2024-04-14T10:57:42.471Z,1.50
2024-04-14T10:58:42.454Z,1.50
2024-04-14T10:59:42.439Z,1.40
2024-04-14T11:00:42.524Z,1.40
2024-04-14T11:01:42.501Z,1.50
2024-04-14T11:02:44.406Z,1.90
2024-04-14T11:03:42.504Z,1.70
2024-04-14T11:04:42.436Z,1.90
2024-04-14T11:05:42.367Z,1.90
2024-04-14T11:06:42.510Z,1.80
2024-04-14T11:07:42.328Z,1.80
2024-04-14T11:08:42.327Z,1.80
2024-04-14T11:09:42.345Z,1.90
2024-04-14T11:10:42.300Z,1.80
2024-04-14T11:11:42.285Z,1.80
2024-04-14T11:12:42.365Z,1.70
2024-04-14T11:13:42.275Z,1.90
2024-04-14T11:14:42.231Z,1.90
2024-04-14T11:15:42.329Z,2.00
2024-04-14T11:16:42.336Z,2.10
2024-04-14T11:17:42.259Z,2.00
2024-04-14T11:18:42.306Z,1.80
2024-04-14T11:19:42.198Z,1.90
2024-04-14T11:20:42.194Z,1.50
2024-04-14T11:21:42.181Z,2.00
2024-04-14T11:22:42.174Z,2.00
2024-04-14T11:23:42.144Z,2.10
2024-04-14T11:24:42.207Z,2.30
2024-04-14T11:25:42.176Z,2.10
2024-04-14T11:26:42.208Z,1.80
2024-04-14T11:27:42.189Z,1.90
2024-04-14T11:28:42.182Z,1.90
2024-04-14T11:29:42.170Z,2.00
2024-04-14T11:30:42.205Z,1.90
2024-04-14T11:31:42.019Z,2.20
2024-04-14T11:32:42.209Z,1.90
2024-04-14T11:33:42.066Z,1.70
2024-04-14T11:34:42.063Z,1.80
2024-04-14T11:35:41.964Z,1.90
2024-04-14T11:36:42.028Z,1.90
2024-04-14T11:37:42.007Z,2.30
2024-04-14T11:38:41.974Z,2.20
2024-04-14T11:39:41.935Z,2.00
2024-04-14T11:40:41.983Z,1.80
2024-04-14T11:41:41.896Z,1.80
2024-04-14T11:42:41.941Z,1.90
2024-04-14T11:43:41.861Z,1.90
2024-04-14T11:44:41.860Z,1.90
2024-04-14T11:45:42.575Z,1.80
2024-04-14T11:46:41.926Z,2.00
2024-04-14T11:47:41.854Z,1.70
2024-04-14T11:48:41.808Z,1.70
2024-04-14T11:49:41.790Z,1.60
2024-04-14T11:50:41.835Z,1.90
2024-04-14T11:51:41.782Z,2.10
2024-04-14T11:52:41.774Z,1.90
2024-04-14T11:53:41.774Z,2.10
2024-04-14T11:54:41.763Z,1.90
2024-04-14T11:55:41.735Z,1.90
2024-04-14T11:56:41.734Z,1.70
2024-04-14T11:57:41.727Z,2.00
2024-04-14T11:58:41.730Z,1.70
2024-04-14T11:59:41.772Z,1.80
2024-04-14T12:00:41.795Z,1.80
2024-04-14T12:01:41.732Z,2.40
2024-04-14T12:02:41.645Z,1.80
2024-04-14T12:03:41.645Z,1.80
2024-04-14T12:04:41.698Z,1.70
2024-04-14T12:05:41.587Z,2.10
2024-04-14T12:06:41.599Z,2.00
2024-04-14T12:07:41.553Z,1.80
2024-04-14T12:08:41.563Z,2.00
2024-04-14T12:09:41.559Z,1.80
2024-04-14T12:10:41.581Z,1.90
2024-04-14T12:11:41.498Z,1.60
2024-04-14T12:12:41.510Z,1.90
2024-04-14T12:13:41.540Z,1.70
2024-04-14T12:14:41.468Z,1.60
2024-04-14T12:15:41.459Z,2.00
2024-04-14T12:16:41.541Z,1.90
2024-04-14T12:17:41.458Z,1.60
2024-04-14T12:18:41.428Z,2.00
2024-04-14T12:19:41.445Z,1.80
2024-04-14T12:20:41.400Z,1.60
2024-04-14T12:21:41.360Z,1.70
2024-04-14T12:22:41.387Z,1.70
2024-04-14T12:23:41.357Z,2.20
2024-04-14T12:24:41.424Z,1.80
2024-04-14T12:25:41.308Z,1.70
2024-04-14T12:26:41.321Z,1.80
2024-04-14T12:27:41.297Z,1.70
2024-04-14T12:28:41.276Z,1.70
2024-04-14T12:29:41.270Z,1.40
2024-04-14T12:30:46.603Z,1.60
2024-04-14T12:31:42.234Z,1.50
2024-04-14T12:32:41.308Z,1.90
2024-04-14T12:33:41.258Z,1.80
2024-04-14T12:34:41.224Z,2.10
2024-04-14T12:35:41.807Z,1.90
2024-04-14T12:36:41.364Z,1.80
2024-04-14T12:37:41.178Z,1.70
2024-04-14T12:38:41.222Z,1.70
2024-04-14T12:39:41.165Z,1.50
2024-04-14T12:40:41.214Z,1.80
2024-04-14T12:41:41.131Z,1.40
2024-04-14T12:42:41.166Z,1.80
2024-04-14T12:43:41.104Z,1.80
2024-04-14T12:44:41.070Z,2.30
2024-04-14T12:45:41.107Z,1.80
2024-04-14T12:46:41.107Z,1.90
2024-04-14T12:47:41.098Z,1.60
2024-04-14T12:48:41.023Z,1.90
2024-04-14T12:49:41.006Z,1.70
2024-04-14T12:50:44.756Z,1.70
2024-04-14T12:51:40.976Z,2.40
2024-04-14T12:52:40.985Z,1.90
2024-04-14T12:53:40.944Z,1.60
2024-04-14T12:54:40.956Z,2.10
2024-04-14T12:55:40.943Z,1.60
2024-04-14T12:56:40.913Z,1.70
2024-04-14T12:57:40.926Z,1.50
2024-04-14T12:58:40.920Z,1.50
2024-04-14T12:59:40.939Z,1.70
2024-04-14T13:00:40.910Z,1.50
2024-04-14T13:01:40.940Z,1.60
2024-04-14T13:02:40.895Z,1.50
2024-04-14T13:03:40.912Z,1.50
2024-04-14T13:04:40.839Z,1.60
2024-04-14T13:05:40.864Z,1.50
2024-04-14T13:06:40.856Z,1.50
2024-04-14T13:07:40.780Z,1.40
2024-04-14T13:08:40.783Z,1.60
2024-04-14T13:09:40.805Z,1.60
2024-04-14T13:10:40.759Z,1.70
2024-04-14T13:11:40.775Z,1.30
2024-04-14T13:12:40.729Z,1.70
2024-04-14T13:13:40.692Z,1.30
2024-04-14T13:14:40.719Z,1.60
2024-04-14T13:15:40.714Z,1.40
2024-04-14T13:16:42.484Z,1.40
2024-04-14T13:17:40.668Z,1.60
2024-04-14T13:18:40.681Z,1.40